Rio de Janeiro, Brazil
Current Conditions -  °F | °C
As of 1:00 PM on Tuesday 21 Oct 2014 (Local Time) from SBRJ Reporting Station
Overcast Overcast  
Wind Chill: 75°   Ceiling: 4000
Heat Index: 75°   Visibility: 6mi
Dew Point: 61°   Wind: 10mph
Humidity: 61%   Direction: 180°S
Pressure: 30.12"   Gusts: NA
Location:  22.91°S, 43.2°W
Report Text: SBRJ 211500Z 18009KT 9000 BKN040 OVC070 24/16 Q1020
Loading
Personal Weather Stations






























Interactive Weather Map
Tropical Storm Tracking
New forecast layout! Learn more

10-Day Weather Forecast

Advertisements
Track Severe Weather on mobile